Time;durP1;ratioP1;P1;durP2;ratioP2;P2;SDS_P1;SDS_P2;PMS_P1;PMS_P2;Temp;Humidity;BMP_temperature;BMP_pressure;BME280_temperature;BME280_humidity;BME280_pressure;Samples;Min_cycle;Max_cycle;Signal;HPM_P1;HPM_P2
2023/01/23 00:00:30;;;;;;;15.45;8.07;;;;;;;0.10;100.00;100038.91;5061565;28;20068;-77
2023/01/23 00:02:56;;;;;;;15.05;7.35;;;;;;;0.06;100.00;100034.78;5047752;28;20112;-77
2023/01/23 00:05:22;;;;;;;13.10;7.18;;;;;;;-0.06;100.00;100032.97;5051145;28;20113;-78
2023/01/23 00:07:47;;;;;;;13.75;6.82;;;;;;;-0.02;100.00;100032.66;5049910;28;20016;-77
2023/01/23 00:10:12;;;;;;;15.48;8.30;;;;;;;-0.02;100.00;100037.13;5068080;28;20109;-75
2023/01/23 00:12:41;;;;;;;15.70;7.72;;;;;;;-0.01;100.00;100034.34;5057659;28;20029;-75
2023/01/23 00:15:08;;;;;;;13.65;7.07;;;;;;;-0.05;100.00;100024.88;5052137;28;20040;-76
2023/01/23 00:17:33;;;;;;;12.90;6.57;;;;;;;-0.06;100.00;100014.34;5070409;28;20025;-75
2023/01/23 00:19:59;;;;;;;13.63;7.07;;;;;;;-0.03;100.00;100011.47;5055186;28;20029;-75
2023/01/23 00:22:24;;;;;;;12.75;7.00;;;;;;;0.08;100.00;100038.19;5060034;28;20029;-75
2023/01/23 00:24:49;;;;;;;14.77;7.45;;;;;;;0.09;100.00;100041.69;5051973;28;20032;-75
2023/01/23 00:27:15;;;;;;;15.07;7.95;;;;;;;0.03;100.00;100032.34;5051238;28;20020;-75
2023/01/23 00:29:40;;;;;;;14.50;7.53;;;;;;;-0.05;100.00;100040.00;5053240;28;20081;-76
2023/01/23 00:32:05;;;;;;;16.35;8.23;;;;;;;-0.03;100.00;100043.38;5068698;28;20410;-75
2023/01/23 00:34:31;;;;;;;18.05;8.80;;;;;;;-0.08;100.00;100035.75;5067430;28;20028;-76
2023/01/23 00:36:56;;;;;;;14.38;8.15;;;;;;;-0.11;100.00;100035.94;5054112;28;20501;-75
2023/01/23 00:39:21;;;;;;;14.38;7.88;;;;;;;-0.17;100.00;100024.88;5039780;28;20086;-75
2023/01/23 00:41:48;;;;;;;14.20;7.65;;;;;;;-0.10;100.00;100039.47;5057290;28;20024;-75
2023/01/23 00:44:14;;;;;;;16.17;8.45;;;;;;;-0.07;100.00;100028.59;5040891;28;20032;-76
2023/01/23 00:46:39;;;;;;;14.60;8.35;;;;;;;-0.05;100.00;100035.53;5041664;28;20257;-75
2023/01/23 00:49:05;;;;;;;16.42;8.48;;;;;;;-0.02;100.00;100035.31;5047522;28;20488;-74
2023/01/23 00:51:31;;;;;;;17.10;8.40;;;;;;;-0.03;100.00;100032.75;5055513;28;20132;-78
2023/01/23 00:53:56;;;;;;;15.40;8.10;;;;;;;-0.26;100.00;99997.94;5075680;28;20111;-75
2023/01/23 00:56:22;;;;;;;14.65;7.72;;;;;;;0.01;100.00;100038.72;5057703;28;20031;-75
2023/01/23 00:58:47;;;;;;;15.80;7.97;;;;;;;-0.01;100.00;100037.00;5071534;28;20024;-75
2023/01/23 01:01:14;;;;;;;14.70;8.05;;;;;;;0.05;100.00;100041.03;5074003;28;20057;-76
2023/01/23 01:03:40;;;;;;;16.40;7.80;;;;;;;-0.12;100.00;100025.41;5051346;28;20025;-75
2023/01/23 01:06:05;;;;;;;16.17;8.20;;;;;;;-0.11;100.00;100035.94;5063645;28;20082;-75
2023/01/23 01:08:30;;;;;;;16.50;7.93;;;;;;;-0.05;100.00;100042.66;5055024;28;20021;-76
2023/01/23 01:10:56;;;;;;;15.82;8.57;;;;;;;-0.20;100.00;100030.41;5071553;28;20031;-76
2023/01/23 01:13:22;;;;;;;17.30;7.97;;;;;;;-0.14;100.00;100029.97;5050569;28;20474;-75
2023/01/23 01:15:49;;;;;;;16.15;8.50;;;;;;;-0.07;100.00;100052.53;5068277;28;20024;-75
2023/01/23 01:18:14;;;;;;;18.48;8.07;;;;;;;-0.10;100.00;100047.44;5071508;28;20032;-76
2023/01/23 01:20:41;;;;;;;16.70;8.77;;;;;;;0.01;100.00;100055.53;5063026;28;20037;-75
2023/01/23 01:23:07;;;;;;;15.40;7.95;;;;;;;0.05;100.00;100056.16;5042901;28;20025;-75
2023/01/23 01:25:32;;;;;;;18.13;8.82;;;;;;;0.08;100.00;100046.19;5051426;28;20469;-75
2023/01/23 01:27:57;;;;;;;15.98;8.18;;;;;;;-0.11;100.00;100045.72;5063073;28;20021;-75
2023/01/23 01:30:25;;;;;;;19.05;8.45;;;;;;;0.00;100.00;100051.19;5052650;28;20020;-76
2023/01/23 01:32:52;;;;;;;15.98;8.00;;;;;;;0.07;100.00;100071.06;5065057;28;20024;-75
2023/01/23 01:35:18;;;;;;;17.58;9.32;;;;;;;-0.04;100.00;100060.31;5065794;28;20028;-76
2023/01/23 01:37:44;;;;;;;16.17;8.18;;;;;;;-0.03;100.00;100062.00;5073847;28;20056;-75
2023/01/23 01:40:14;;;;;;;15.98;8.77;;;;;;;-0.12;100.00;100054.66;5042123;28;20497;-75
2023/01/23 01:43:04;;;;;;;18.65;9.30;;;;;;;0.01;100.00;100079.47;5045671;28;20104;-75
2023/01/23 01:46:04;;;;;;;17.05;8.05;;;;;;;0.18;100.00;100081.84;5038029;28;20029;-75
2023/01/23 01:48:39;;;;;;;15.57;8.10;;;;;;;0.06;100.00;100077.34;5067023;28;20703;-75
2023/01/23 01:51:16;;;;;;;16.15;8.05;;;;;;;0.05;100.00;100080.09;5062447;28;20029;-75
2023/01/23 01:53:43;;;;;;;21.08;8.05;;;;;;;-0.09;100.00;100073.91;5054455;28;20025;-75
2023/01/23 01:56:11;;;;;;;16.58;8.63;;;;;;;0.05;100.00;100072.97;5061774;28;20107;-75
2023/01/23 01:58:39;;;;;;;11.87;6.13;;;;;;;0.09;100.00;100085.13;5057158;28;20082;-75
2023/01/23 02:01:04;;;;;;;17.08;8.07;;;;;;;0.14;100.00;100088.31;5048280;28;20029;-75
2023/01/23 02:03:30;;;;;;;16.10;7.93;;;;;;;0.09;100.00;100078.94;5047832;28;20391;-73
2023/01/23 02:05:55;;;;;;;18.20;8.07;;;;;;;0.09;100.00;100068.31;5048926;28;20444;-75
2023/01/23 02:08:31;;;;;;;14.88;8.38;;;;;;;0.10;100.00;100067.34;5049526;28;20029;-75
2023/01/23 02:11:00;;;;;;;16.20;8.27;;;;;;;0.07;100.00;100060.41;5045160;28;20028;-75
2023/01/23 02:13:35;;;;;;;;;;;;;;;0.25;100.00;100076.94;5046939;28;20033;-75
2023/01/23 02:16:05;;;;;;;14.95;6.72;;;;;;;0.09;100.00;100070.97;5066607;28;19920;-75
2023/01/23 02:18:31;;;;;;;;;;;;;;;0.18;100.00;100088.94;5049054;28;20086;-74
2023/01/23 02:21:00;;;;;;;13.55;6.85;;;;;;;0.14;100.00;100072.34;5067394;28;19923;-75
2023/01/23 02:23:42;;;;;;;15.45;7.40;;;;;;;0.25;100.00;100087.56;5045485;28;20020;-74
2023/01/23 02:26:23;;;;;;;14.60;7.00;;;;;;;0.21;100.00;100073.66;5048192;28;20033;-75
2023/01/23 02:28:52;;;;;;;14.98;7.30;;;;;;;0.29;100.00;100077.56;5059270;28;20029;-75
2023/01/23 02:31:18;;;;;;;15.20;8.07;;;;;;;0.26;100.00;100065.31;5052561;28;20052;-75
2023/01/23 02:33:45;;;;;;;14.27;7.25;;;;;;;0.24;100.00;100077.03;5055153;28;20028;-75
2023/01/23 02:36:11;;;;;;;16.38;7.82;;;;;;;0.16;100.00;100069.59;5065209;28;20032;-75
2023/01/23 02:38:44;;;;;;;14.95;8.00;;;;;;;0.13;100.00;100075.09;5042332;28;20367;-74
2023/01/23 02:41:12;;;;;;;15.77;7.40;;;;;;;0.09;100.00;100073.63;5069029;28;20036;-75
2023/01/23 02:43:38;;;;;;;13.38;7.15;;;;;;;0.17;100.00;100065.97;5054379;28;20481;-75
2023/01/23 02:46:05;;;;;;;13.88;6.97;;;;;;;0.28;100.00;100071.38;5065564;28;20032;-74
2023/01/23 02:48:30;;;;;;;15.00;7.18;;;;;;;0.25;100.00;100062.78;5053533;28;20048;-74
2023/01/23 02:50:55;;;;;;;15.32;7.50;;;;;;;0.17;100.00;100061.50;5051566;28;20454;-74
2023/01/23 02:53:21;;;;;;;16.20;8.35;;;;;;;0.06;100.00;100066.72;5042889;28;20025;-74
2023/01/23 02:55:46;;;;;;;15.13;7.20;;;;;;;0.31;100.00;100068.50;5043590;28;20107;-75
2023/01/23 03:00:55;;;;;;;16.35;8.32;;;;;;;0.13;100.00;100057.34;5078536;22;20088;-75
2023/01/23 03:03:21;;;;;;;17.13;7.90;;;;;;;0.09;100.00;100063.00;5037304;28;20029;-74
2023/01/23 03:05:46;;;;;;;18.30;7.57;;;;;;;-0.03;100.00;100052.25;5038156;28;20082;-75
2023/01/23 03:08:12;;;;;;;17.55;8.25;;;;;;;0.02;100.00;100067.03;5043947;28;20123;-74
2023/01/23 03:10:37;;;;;;;15.10;7.95;;;;;;;0.02;100.00;100067.03;5037226;28;20043;-74
2023/01/23 03:13:06;;;;;;;15.40;7.38;;;;;;;0.10;100.00;100078.81;5040865;28;20395;-74
2023/01/23 03:15:33;;;;;;;17.73;8.77;;;;;;;0.16;100.00;100085.56;5032655;28;20036;-75
2023/01/23 03:17:58;;;;;;;16.98;8.30;;;;;;;0.04;100.00;100067.78;5055603;28;20035;-74
2023/01/23 03:20:25;;;;;;;15.15;7.68;;;;;;;0.13;100.00;100080.44;5055008;28;20045;-74
2023/01/23 03:22:51;;;;;;;18.02;7.93;;;;;;;0.13;100.00;100081.31;5050677;28;20478;-75
2023/01/23 03:25:16;;;;;;;16.45;8.35;;;;;;;0.15;100.00;100074.03;5055805;28;20016;-75
2023/01/23 03:27:42;;;;;;;15.43;7.55;;;;;;;0.26;100.00;100096.41;5047879;28;20035;-75
2023/01/23 03:30:12;;;;;;;14.73;7.85;;;;;;;0.15;100.00;100071.38;5052082;28;20032;-75
2023/01/23 03:32:38;;;;;;;16.23;8.13;;;;;;;0.25;100.00;100089.41;5026437;28;20548;-76
2023/01/23 03:35:05;;;;;;;15.70;7.68;;;;;;;0.10;100.00;100070.00;5050501;28;20025;-73
2023/01/23 03:37:30;;;;;;;17.52;7.10;;;;;;;0.02;100.00;100062.53;5055641;28;20025;-73
2023/01/23 03:42:39;;;;;;;14.80;8.05;;;;;;;0.06;100.00;100068.53;5064030;28;20039;-74
2023/01/23 03:45:05;;;;;;;16.23;7.50;;;;;;;-0.03;100.00;100059.34;5060122;28;20029;-73
2023/01/23 03:47:31;;;;;;;15.05;7.55;;;;;;;-0.11;100.00;100053.69;5043887;28;20017;-73
2023/01/23 03:49:56;;;;;;;16.02;8.23;;;;;;;-0.28;100.00;100050.38;5058771;28;20025;-73
2023/01/23 03:52:22;;;;;;;16.48;7.72;;;;;;;-0.44;100.00;100057.69;5042764;28;20021;-73
2023/01/23 03:54:47;;;;;;;16.80;7.10;;;;;;;-0.63;100.00;100057.19;5031790;28;20349;-74
2023/01/23 03:57:13;;;;;;;13.73;7.93;;;;;;;-0.79;100.00;100071.47;5039473;28;20037;-75
2023/01/23 03:59:38;;;;;;;17.83;7.38;;;;;;;-0.88;100.00;100078.25;5070081;28;20044;-74
2023/01/23 04:02:03;;;;;;;16.05;7.47;;;;;;;-1.06;100.00;100052.88;5041546;28;20074;-73
2023/01/23 04:04:33;;;;;;;19.02;8.75;;;;;;;-1.16;100.00;100057.91;5060435;28;20024;-73
2023/01/23 04:06:58;;;;;;;20.17;8.95;;;;;;;-1.08;100.00;100075.16;5037176;28;20029;-74
2023/01/23 04:09:26;;;;;;;19.13;8.30;;;;;;;-1.23;100.00;100066.38;5062277;28;20116;-74
2023/01/23 04:11:53;;;;;;;18.48;8.55;;;;;;;-1.07;100.00;100087.50;5046950;28;20036;-74
2023/01/23 04:14:19;;;;;;;17.10;8.25;;;;;;;-1.09;100.00;100076.97;5056058;28;20035;-74
2023/01/23 04:16:45;;;;;;;18.80;8.18;;;;;;;-1.22;100.00;100060.97;5056340;28;20498;-74
2023/01/23 04:19:10;;;;;;;18.38;8.07;;;;;;;-1.23;100.00;100063.72;5044527;28;20449;-74
2023/01/23 04:21:35;;;;;;;17.67;8.15;;;;;;;-1.04;100.00;100092.63;5055851;28;20064;-74
2023/01/23 04:24:00;;;;;;;20.92;9.23;;;;;;;-1.12;100.00;100071.88;5047429;28;20032;-75
2023/01/23 04:26:26;;;;;;;18.23;8.40;;;;;;;-0.99;100.00;100101.16;5037306;28;20116;-74
2023/01/23 04:28:51;;;;;;;20.05;8.60;;;;;;;-1.04;100.00;100088.16;5041759;28;20024;-74
2023/01/23 04:31:16;;;;;;;20.48;9.15;;;;;;;-0.91;100.00;100107.69;5047471;28;20035;-74
2023/01/23 04:33:42;;;;;;;22.27;9.23;;;;;;;-0.85;100.00;100092.28;5057036;28;20528;-74
2023/01/23 04:36:07;;;;;;;21.15;8.88;;;;;;;-0.65;100.00;100131.72;5049882;28;20105;-75
2023/01/23 04:38:33;;;;;;;20.55;9.00;;;;;;;-0.71;100.00;100117.03;5049145;28;20037;-74
2023/01/23 04:40:59;;;;;;;21.10;9.20;;;;;;;-0.65;100.00;100125.56;5055806;28;20029;-74
2023/01/23 04:43:24;;;;;;;21.98;8.52;;;;;;;-0.67;100.00;100123.00;5038462;28;20394;-74
2023/01/23 04:45:52;;;;;;;20.85;9.02;;;;;;;-0.56;100.00;100136.44;5038104;28;20027;-75
2023/01/23 04:48:17;;;;;;;21.95;8.80;;;;;;;-0.66;100.00;100116.72;5054358;28;20071;-74
2023/01/23 04:50:42;;;;;;;21.42;9.27;;;;;;;-0.54;100.00;100134.53;5039779;28;20037;-73
2023/01/23 04:53:08;;;;;;;22.83;8.38;;;;;;;-0.60;100.00;100123.44;5038818;28;20082;-74
2023/01/23 04:55:33;;;;;;;19.92;8.55;;;;;;;-0.60;100.00;100126.97;5056932;28;20485;-74
2023/01/23 04:57:59;;;;;;;20.13;8.65;;;;;;;-0.44;100.00;100142.78;5054139;28;20037;-74
2023/01/23 05:00:27;;;;;;;18.55;7.75;;;;;;;-0.54;100.00;100125.72;5052268;28;20048;-75
2023/01/23 05:02:53;;;;;;;19.08;8.68;;;;;;;-0.48;100.00;100123.47;5054455;28;20021;-73
2023/01/23 05:05:21;;;;;;;18.52;7.80;;;;;;;-0.48;100.00;100114.66;5039224;28;20100;-74
2023/01/23 05:07:47;;;;;;;19.83;8.40;;;;;;;-0.41;100.00;100120.44;5036104;28;20025;-74
2023/01/23 05:10:17;;;;;;;18.38;8.10;;;;;;;-0.27;100.00;100137.16;5044113;28;20112;-79
2023/01/23 05:12:42;;;;;;;19.85;8.57;;;;;;;-0.41;100.00;100108.00;5051091;28;20512;-81
2023/01/23 05:15:09;;;;;;;21.15;7.97;;;;;;;-0.22;100.00;100135.06;5056988;28;20021;-78
2023/01/23 05:17:41;;;;;;;18.20;7.88;;;;;;;-0.24;100.00;100136.13;5049018;28;20025;-81
2023/01/23 05:20:07;;;;;;;17.88;8.65;;;;;;;-0.28;100.00;100122.19;5059120;28;20043;-78
2023/01/23 05:22:32;;;;;;;16.25;8.55;;;;;;;-0.25;100.00;100127.28;5041874;28;20040;-78
2023/01/23 05:25:22;;;;;;;15.40;7.65;;;;;;;-0.17;100.00;100137.44;5053512;28;20371;-84
2023/01/23 05:31:09;;;;;;;17.65;8.52;;;;;;;-0.14;100.00;100145.19;5098003;22;20054;-57
2023/01/23 05:33:36;;;;;;;18.80;8.20;;;;;;;-0.19;100.00;100139.31;5058772;28;20383;-57
2023/01/23 05:36:01;;;;;;;21.20;9.50;;;;;;;-0.18;100.00;100140.16;5047002;28;20033;-57
2023/01/23 05:38:26;;;;;;;17.92;8.65;;;;;;;-0.15;100.00;100134.69;5047096;28;20162;-57
2023/01/23 05:40:52;;;;;;;19.27;8.35;;;;;;;-0.18;100.00;100134.84;5050689;28;20024;-57
2023/01/23 05:43:18;;;;;;;18.20;8.85;;;;;;;-0.13;100.00;100133.63;5044623;28;20036;-69
2023/01/23 05:45:44;;;;;;;18.20;7.82;;;;;;;-0.15;100.00;100122.22;5059885;28;20036;-69
2023/01/23 05:48:09;;;;;;;17.63;8.05;;;;;;;-0.13;100.00;100130.09;5045437;28;20044;-57
2023/01/23 05:50:35;;;;;;;19.08;8.05;;;;;;;-0.10;100.00;100124.59;5036257;28;20375;-57
2023/01/23 05:53:00;;;;;;;18.95;8.63;;;;;;;-0.08;100.00;100127.97;5037234;28;20552;-57
2023/01/23 05:55:25;;;;;;;20.83;8.40;;;;;;;-0.09;100.00;100128.94;5047263;28;20552;-57
2023/01/23 05:57:51;;;;;;;19.70;8.57;;;;;;;-0.14;100.00;100137.22;5043213;28;20052;-57
2023/01/23 06:00:17;;;;;;;18.13;8.63;;;;;;;-0.15;100.00;100132.88;5045684;28;20035;-69
2023/01/23 06:02:42;;;;;;;17.27;8.60;;;;;;;-0.09;100.00;100135.09;5052215;28;20029;-69
2023/01/23 06:05:08;;;;;;;20.88;9.00;;;;;;;-0.16;100.00;100138.28;5047764;28;20028;-68
2023/01/23 06:07:34;;;;;;;22.25;9.35;;;;;;;-0.18;100.00;100148.16;5036795;28;20036;-57
2023/01/23 06:09:59;;;;;;;23.13;9.85;;;;;;;-0.19;100.00;100143.81;5044466;28;20066;-57
2023/01/23 06:12:25;;;;;;;19.23;9.38;;;;;;;-0.24;100.00;100150.28;5049876;28;20028;-69
2023/01/23 06:14:51;;;;;;;19.38;9.52;;;;;;;-0.26;100.00;100151.34;5043373;28;20043;-69
2023/01/23 06:17:16;;;;;;;20.90;9.13;;;;;;;-0.25;100.00;100155.69;5063514;28;20025;-70
2023/01/23 06:19:42;;;;;;;20.52;9.10;;;;;;;-0.23;100.00;100159.13;5050658;28;20031;-69
2023/01/23 06:22:08;;;;;;;23.40;10.43;;;;;;;-0.32;100.00;100147.25;5093037;22;20111;-68
2023/01/23 06:24:33;;;;;;;23.15;9.85;;;;;;;-0.30;100.00;100153.34;5076217;28;20032;-57
2023/01/23 06:27:07;;;;;;;21.80;9.82;;;;;;;-0.28;100.00;100170.06;5061581;28;20029;-57
2023/01/23 06:29:33;;;;;;;20.65;9.05;;;;;;;-0.35;100.00;100176.72;5059860;28;20043;-57
2023/01/23 06:31:59;;;;;;;21.00;9.43;;;;;;;-0.29;100.00;100173.69;5072159;28;20025;-69
2023/01/23 06:34:24;;;;;;;21.80;9.35;;;;;;;-0.30;100.00;100174.63;5071032;28;20030;-68
2023/01/23 06:36:50;;;;;;;22.52;9.93;;;;;;;-0.32;100.00;100187.16;5060280;28;20105;-69
2023/01/23 06:39:15;;;;;;;24.27;9.95;;;;;;;-0.29;100.00;100184.31;5072142;28;20073;-69
2023/01/23 06:41:41;;;;;;;23.58;9.50;;;;;;;-0.28;100.00;100182.50;5072161;28;20183;-69
2023/01/23 06:44:06;;;;;;;24.00;10.23;;;;;;;-0.33;100.00;100190.78;5067756;28;20031;-69
2023/01/23 06:46:32;;;;;;;20.42;8.85;;;;;;;-0.35;100.00;100182.03;5062642;28;20047;-69
2023/01/23 06:48:58;;;;;;;24.10;10.48;;;;;;;-0.37;100.00;100194.56;5055210;28;20036;-69
2023/01/23 06:51:23;;;;;;;24.75;9.93;;;;;;;-0.37;100.00;100204.34;5062931;28;20032;-69
2023/01/23 06:53:49;;;;;;;26.10;10.40;;;;;;;-0.38;100.00;100192.03;5058870;28;20491;-69
2023/01/23 06:56:14;;;;;;;25.45;10.90;;;;;;;-0.31;100.00;100199.50;5067865;28;20035;-69
2023/01/23 06:58:44;;;;;;;32.28;13.02;;;;;;;-0.28;100.00;100203.78;5069903;28;20407;-73
2023/01/23 07:01:11;;;;;;;25.50;10.18;;;;;;;-0.31;100.00;100206.63;5067574;28;20035;-69
2023/01/23 07:03:37;;;;;;;28.85;11.13;;;;;;;-0.30;100.00;100211.00;5069493;28;20027;-69
2023/01/23 07:06:05;;;;;;;25.33;11.10;;;;;;;-0.29;100.00;100210.91;5080749;28;20026;-69
2023/01/23 07:08:32;;;;;;;25.63;10.52;;;;;;;-0.30;100.00;100211.84;5057971;28;20049;-69
2023/01/23 07:10:58;;;;;;;23.48;10.65;;;;;;;-0.26;100.00;100221.34;5075192;28;20024;-67
2023/01/23 07:13:23;;;;;;;28.67;10.85;;;;;;;-0.28;100.00;100217.91;5075457;28;20562;-66
2023/01/23 07:15:49;;;;;;;24.00;11.25;;;;;;;-0.24;100.00;100227.41;5059431;28;20028;-69
2023/01/23 07:18:14;;;;;;;28.15;11.02;;;;;;;-0.20;100.00;100225.41;5059318;28;20020;-58
2023/01/23 07:20:43;;;;;;;26.30;10.98;;;;;;;-0.12;100.00;100238.22;5067403;28;20168;-59
2023/01/23 07:23:09;;;;;;;29.98;11.63;;;;;;;-0.12;100.00;100240.88;5073459;28;20028;-59
2023/01/23 07:25:34;;;;;;;26.50;11.68;;;;;;;-0.08;100.00;100235.25;5065344;28;20038;-59
2023/01/23 07:27:59;;;;;;;25.20;10.77;;;;;;;-0.04;100.00;100236.75;5063897;28;20047;-59
2023/01/23 07:30:26;;;;;;;24.40;11.02;;;;;;;-0.06;100.00;100232.47;5066036;28;20016;-58
2023/01/23 07:32:52;;;;;;;26.13;10.82;;;;;;;-0.03;100.00;100229.59;5068831;28;20029;-67
2023/01/23 07:35:17;;;;;;;28.45;11.82;;;;;;;-0.02;100.00;100242.81;5067207;28;20073;-68
2023/01/23 07:37:43;;;;;;;25.90;10.73;;;;;;;-0.03;100.00;100234.94;5068674;28;20032;-67
2023/01/23 07:40:09;;;;;;;26.02;10.43;;;;;;;0.04;100.00;100241.56;5063119;28;20029;-68
2023/01/23 07:42:34;;;;;;;26.52;11.48;;;;;;;0.05;100.00;100240.59;5079377;28;20039;-68
2023/01/23 07:45:00;;;;;;;26.08;10.38;;;;;;;0.12;100.00;100238.41;5066698;28;20020;-69
2023/01/23 07:47:26;;;;;;;22.52;9.88;;;;;;;0.14;100.00;100236.50;5068000;28;20027;-68
2023/01/23 07:49:51;;;;;;;25.90;10.50;;;;;;;0.10;100.00;100241.16;5074560;28;20035;-69
2023/01/23 07:52:17;;;;;;;26.92;10.70;;;;;;;0.12;100.00;100239.25;5068923;28;20052;-68
2023/01/23 07:54:42;;;;;;;25.80;10.55;;;;;;;0.23;100.00;100238.53;5062178;28;20468;-68
2023/01/23 07:57:07;;;;;;;23.58;10.52;;;;;;;0.28;100.00;100238.22;5058877;28;20042;-68
2023/01/23 07:59:33;;;;;;;24.27;10.10;;;;;;;0.29;100.00;100235.47;5081868;28;20039;-58
2023/01/23 08:01:58;;;;;;;22.58;10.32;;;;;;;0.33;100.00;100236.13;5077983;28;20024;-59
2023/01/23 08:04:23;;;;;;;20.20;9.18;;;;;;;0.38;100.00;100232.19;5066074;28;20058;-59
2023/01/23 08:06:49;;;;;;;27.88;10.70;;;;;;;0.32;100.00;100240.59;5072225;28;20031;-59
2023/01/23 08:09:15;;;;;;;19.80;8.95;;;;;;;0.40;100.00;100240.94;5071454;28;20024;-59
2023/01/23 08:11:40;;;;;;;21.70;8.98;;;;;;;0.43;100.00;100227.41;5061965;28;20031;-59
2023/01/23 08:14:06;;;;;;;21.63;7.95;;;;;;;0.46;100.00;100229.00;5063318;28;20075;-59
2023/01/23 08:16:31;;;;;;;18.77;8.57;;;;;;;0.51;100.00;100228.72;5068026;28;20020;-59
2023/01/23 08:18:56;;;;;;;23.23;9.30;;;;;;;0.58;100.00;100228.19;5068029;28;20033;-59
2023/01/23 08:21:22;;;;;;;19.92;8.88;;;;;;;0.56;100.00;100230.09;5062681;28;20464;-59
2023/01/23 08:23:47;;;;;;;27.58;10.48;;;;;;;0.52;100.00;100231.25;5062630;28;20054;-59
2023/01/23 08:26:15;;;;;;;28.42;11.48;;;;;;;0.59;100.00;100231.69;5060805;28;20028;-59
2023/01/23 08:28:41;;;;;;;22.17;9.93;;;;;;;0.67;100.00;100236.50;5065556;28;20024;-59
2023/01/23 08:31:09;;;;;;;20.85;8.57;;;;;;;0.61;100.00;100227.97;5071095;28;20032;-59
2023/01/23 08:33:36;;;;;;;24.08;9.82;;;;;;;0.61;100.00;100230.63;5086052;28;20059;-59
2023/01/23 08:36:03;;;;;;;22.67;10.20;;;;;;;0.53;100.00;100227.66;5082631;28;20032;-61
2023/01/23 08:38:29;;;;;;;17.52;8.35;;;;;;;0.55;100.00;100225.75;5066073;28;20115;-59
2023/01/23 08:40:58;;;;;;;19.80;8.30;;;;;;;0.62;100.00;100234.16;5066007;28;20055;-59
2023/01/23 08:43:23;;;;;;;15.00;6.43;;;;;;;0.59;100.00;100218.38;5072156;28;20555;-59
2023/01/23 08:45:54;;;;;;;19.00;7.40;;;;;;;0.67;100.00;100213.38;5063525;28;20028;-59
2023/01/23 08:48:22;;;;;;;16.85;6.80;;;;;;;0.77;100.00;100209.13;5060755;28;20467;-59
2023/01/23 08:50:48;;;;;;;14.77;6.93;;;;;;;0.83;100.00;100207.84;5070426;28;20032;-59
2023/01/23 08:53:14;;;;;;;18.05;7.70;;;;;;;0.78;100.00;100207.31;5071290;28;20115;-58
2023/01/23 08:55:39;;;;;;;17.75;7.47;;;;;;;0.87;100.00;100193.34;5067697;28;20112;-59
2023/01/23 08:58:06;;;;;;;19.80;8.48;;;;;;;0.91;100.00;100200.16;5060840;28;20404;-59
2023/01/23 09:00:32;;;;;;;26.42;8.88;;;;;;;0.92;100.00;100199.22;5059516;28;20127;-59
2023/01/23 09:02:59;;;;;;;22.73;9.52;;;;;;;0.99;100.00;100204.97;5065710;28;20535;-59
2023/01/23 09:05:26;;;;;;;24.02;9.52;;;;;;;1.07;100.00;100206.13;5068000;28;20024;-59
2023/01/23 09:07:51;;;;;;;23.33;10.38;;;;;;;1.16;100.00;100219.78;5065517;28;20032;-59
2023/01/23 09:10:16;;;;;;;28.75;11.93;;;;;;;1.18;100.00;100217.81;5085877;28;20036;-59
2023/01/23 09:12:42;;;;;;;22.52;9.57;;;;;;;1.15;100.00;100207.38;5093724;28;20060;-59
2023/01/23 09:15:08;;;;;;;19.38;9.10;;;;;;;1.15;100.00;100223.38;5065280;28;20387;-60
2023/01/23 09:17:34;;;;;;;19.95;9.32;;;;;;;1.29;100.00;100225.94;5064792;28;20016;-59
2023/01/23 09:20:00;;;;;;;18.65;8.95;;;;;;;1.34;100.00;100225.59;5072272;28;20039;-59
2023/01/23 09:22:26;;;;;;;19.48;9.10;;;;;;;1.43;100.00;100227.63;5072394;28;20522;-59
2023/01/23 09:24:51;;;;;;;19.67;8.43;;;;;;;1.38;100.00;100219.94;5071360;28;20032;-59
2023/01/23 09:27:17;;;;;;;18.45;8.20;;;;;;;1.36;100.00;100218.34;5066353;28;20043;-59
2023/01/23 09:29:43;;;;;;;17.80;7.55;;;;;;;1.38;100.00;100217.28;5093231;28;20032;-59
2023/01/23 09:32:08;;;;;;;16.10;8.13;;;;;;;1.45;100.00;100204.34;5082747;28;20039;-59
2023/01/23 09:34:33;;;;;;;19.83;7.70;;;;;;;1.57;100.00;100218.59;5066968;28;20122;-59
2023/01/23 09:36:59;;;;;;;19.95;8.07;;;;;;;1.52;100.00;100213.63;5067426;28;20127;-59
2023/01/23 09:39:24;;;;;;;19.67;8.55;;;;;;;1.51;100.00;100220.75;5060748;28;20115;-59
2023/01/23 09:41:54;;;;;;;18.77;8.55;;;;;;;1.42;100.00;100229.44;5074225;28;20119;-68
2023/01/23 09:44:41;;;;;;;15.55;7.15;;;;;;;1.46;100.00;100217.56;5086113;28;20476;-68
2023/01/23 09:47:43;;;;;;;13.98;6.30;;;;;;;1.33;100.00;100221.22;5060028;28;20535;-67
2023/01/23 09:50:56;;;;;;;16.30;6.93;;;;;;;1.28;100.00;100224.22;5047175;28;20041;-68
2023/01/23 09:56:46;;;;;;;16.30;7.35;;;;;;;1.44;100.00;100230.19;5087325;28;20423;-68
2023/01/23 09:59:29;;;;;;;16.95;7.57;;;;;;;1.43;100.00;100232.94;5076831;28;20016;-68
2023/01/23 10:02:00;;;;;;;14.52;7.10;;;;;;;1.27;100.00;100231.38;5076109;28;20126;-68
2023/01/23 10:04:26;;;;;;;15.68;6.60;;;;;;;1.22;100.00;100235.31;5070498;28;20467;-67
2023/01/23 10:07:07;;;;;;;19.60;7.63;;;;;;;1.21;100.00;100236.28;5070085;28;20027;-68
2023/01/23 10:09:51;;;;;;;13.50;7.18;;;;;;;1.25;100.00;100227.09;5065350;28;20020;-64
2023/01/23 10:12:39;;;;;;;15.55;6.63;;;;;;;1.46;100.00;100227.38;5061823;28;20107;-70
2023/01/23 10:15:19;;;;;;;16.48;7.35;;;;;;;1.64;100.00;100235.88;5069893;28;20122;-70
2023/01/23 10:18:22;;;;;;;14.52;6.68;;;;;;;1.74;100.00;100226.25;5067136;28;20024;-68
2023/01/23 10:21:09;;;;;;;14.60;6.90;;;;;;;1.82;100.00;100223.03;5065563;28;20028;-68
2023/01/23 10:24:00;;;;;;;16.75;6.45;;;;;;;1.73;100.00;100232.56;5065627;28;20471;-68
2023/01/23 10:26:30;;;;;;;15.23;6.75;;;;;;;1.63;100.00;100234.19;5067598;28;20038;-59
2023/01/23 10:29:13;;;;;;;13.77;6.75;;;;;;;1.55;100.00;100245.41;5069162;28;20031;-68
2023/01/23 10:31:46;;;;;;;18.73;7.35;;;;;;;1.73;100.00;100232.56;5069717;28;20031;-68
2023/01/23 10:34:24;;;;;;;17.63;7.88;;;;;;;2.00;100.00;100242.19;5069882;28;20391;-59
2023/01/23 10:37:21;;;;;;;14.25;7.53;;;;;;;2.45;100.00;100229.00;5081182;28;20050;-69
2023/01/23 10:39:56;;;;;;;13.20;6.15;;;;;;;2.94;100.00;100214.56;5082813;28;20032;-69
2023/01/23 10:42:24;;;;;;;15.68;6.47;;;;;;;3.45;100.00;100208.72;5058420;28;20036;-69
2023/01/23 10:44:57;;;;;;;17.10;6.93;;;;;;;3.84;100.00;100204.63;5087484;28;20072;-69
2023/01/23 10:47:30;;;;;;;16.17;7.15;;;;;;;3.84;100.00;100206.47;5074878;28;20503;-69
2023/01/23 10:49:56;;;;;;;15.50;7.47;;;;;;;5.17;100.00;100208.56;5067094;28;20031;-69
2023/01/23 10:52:27;;;;;;;14.25;6.95;;;;;;;5.72;100.00;100210.88;5065016;28;20024;-70
2023/01/23 10:54:52;;;;;;;16.52;7.65;;;;;;;4.91;100.00;100192.06;5059349;22;20029;-71
2023/01/23 10:57:24;;;;;;;16.67;8.27;;;;;;;4.30;100.00;100205.34;5051318;28;20040;-72
2023/01/23 10:59:54;;;;;;;16.48;7.03;;;;;;;3.71;100.00;100194.06;5058112;28;20499;-72
2023/01/23 11:02:26;;;;;;;18.27;8.27;;;;;;;3.33;100.00;100220.38;5033341;28;20030;-71
2023/01/23 11:04:52;;;;;;;14.27;7.35;;;;;;;3.10;100.00;100211.53;5048738;28;20029;-71
2023/01/23 11:07:19;;;;;;;16.10;7.95;;;;;;;2.92;100.00;100203.13;5033418;28;20423;-71
2023/01/23 11:09:57;;;;;;;16.02;7.68;;;;;;;3.10;100.00;100224.91;5046871;28;20804;-71
2023/01/23 11:12:31;;;;;;;17.45;7.68;;;;;;;3.15;100.00;100204.84;5049278;28;20055;-71
2023/01/23 11:15:26;;;;;;;16.52;8.25;;;;;;;3.25;100.00;100219.19;5043699;28;20053;-70
2023/01/23 11:17:53;;;;;;;17.17;8.02;;;;;;;3.51;100.00;100209.09;5042280;28;20096;-71
2023/01/23 11:20:41;;;;;;;16.13;8.77;;;;;;;4.41;100.00;100205.28;5044922;28;20090;-70
2023/01/23 11:23:07;;;;;;;15.63;7.68;;;;;;;4.79;100.00;100193.09;5031345;28;20559;-70
2023/01/23 11:25:39;;;;;;;19.42;8.25;;;;;;;5.72;100.00;100189.41;5032572;28;20115;-71
2023/01/23 11:28:29;;;;;;;15.45;7.68;;;;;;;8.04;100.00;100165.59;5030991;28;20029;-70